createdAt,value
2022-12-20T00:01:03.010Z,80.06
2022-12-20T00:03:35.955Z,80.17
2022-12-20T00:06:06.514Z,80.38
2022-12-20T00:08:39.000Z,80.43
2022-12-20T00:11:11.747Z,80.59
2022-12-20T00:13:42.471Z,80.58
2022-12-20T00:16:15.977Z,80.78
2022-12-20T00:18:49.791Z,80.87
2022-12-20T00:21:20.354Z,80.77
2022-12-20T00:23:50.845Z,80.58
2022-12-20T00:26:23.737Z,80.63
2022-12-20T00:28:59.648Z,80.39
2022-12-20T00:31:33.555Z,80.35
2022-12-20T00:34:07.411Z,80.44
2022-12-20T00:36:42.961Z,80.38
2022-12-20T00:39:15.775Z,80.53
2022-12-20T00:41:46.410Z,80.48
2022-12-20T00:44:17.616Z,80.83
2022-12-20T00:46:48.325Z,80.54
2022-12-20T00:49:21.732Z,80.70
2022-12-20T00:51:52.599Z,80.76
2022-12-20T00:54:23.217Z,80.92
2022-12-20T00:56:53.883Z,81.13
2022-12-20T00:59:25.782Z,81.06
2022-12-20T01:01:56.476Z,81.27
2022-12-20T01:04:29.629Z,81.36
2022-12-20T01:07:00.265Z,81.34
2022-12-20T01:09:31.319Z,81.26
2022-12-20T01:12:01.967Z,81.42
2022-12-20T01:14:32.523Z,81.48
2022-12-20T01:17:03.227Z,81.36
2022-12-20T01:19:36.911Z,81.16
2022-12-20T01:22:07.348Z,81.37
2022-12-20T01:24:37.839Z,81.36
2022-12-20T01:27:08.819Z,81.61
2022-12-20T01:29:39.723Z,81.48
2022-12-20T01:32:10.314Z,81.55
2022-12-20T01:34:43.873Z,81.31
2022-12-20T01:37:14.417Z,81.22
2022-12-20T01:39:45.205Z,81.17
2022-12-20T01:42:19.568Z,81.46
2022-12-20T01:44:57.902Z,81.46
2022-12-20T01:47:30.157Z,81.42
2022-12-20T01:50:05.307Z,81.19
2022-12-20T01:52:39.979Z,80.80
2022-12-20T01:55:15.484Z,80.72
2022-12-20T01:57:51.820Z,80.79
2022-12-20T02:00:23.165Z,80.82
2022-12-20T02:02:54.423Z,80.47
2022-12-20T02:05:27.865Z,80.62
2022-12-20T02:08:00.115Z,80.85
2022-12-20T02:10:38.287Z,80.61
2022-12-20T02:13:15.635Z,80.63
2022-12-20T02:15:54.222Z,80.31
2022-12-20T02:18:28.443Z,80.41
2022-12-20T02:21:29.067Z,80.56
2022-12-20T02:24:24.523Z,80.45
2022-12-20T02:27:21.669Z,80.67
2022-12-20T02:30:07.253Z,80.35
2022-12-20T02:32:42.171Z,80.25
2022-12-20T02:35:15.712Z,80.16
2022-12-20T02:37:53.867Z,80.10
2022-12-20T02:40:28.569Z,80.42
2022-12-20T02:43:03.462Z,80.26
2022-12-20T02:45:37.743Z,80.18
2022-12-20T02:48:11.001Z,80.59
2022-12-20T02:50:47.785Z,80.29
2022-12-20T02:53:19.482Z,80.42
2022-12-20T02:55:57.628Z,80.40
2022-12-20T02:58:33.995Z,80.39
2022-12-20T03:01:14.429Z,80.41
2022-12-20T03:03:45.460Z,80.41
2022-12-20T03:06:16.184Z,80.52
2022-12-20T03:08:47.353Z,80.60
2022-12-20T03:11:18.179Z,80.35
2022-12-20T03:13:49.020Z,80.13
2022-12-20T03:16:22.301Z,80.37
2022-12-20T03:18:52.925Z,80.38
2022-12-20T03:21:23.616Z,80.40
2022-12-20T03:23:54.078Z,80.52
2022-12-20T03:26:26.726Z,80.52
2022-12-20T03:29:01.553Z,80.42
2022-12-20T03:31:35.303Z,80.27
2022-12-20T03:34:08.137Z,80.55
2022-12-20T03:36:40.425Z,80.24
2022-12-20T03:39:10.897Z,80.18
2022-12-20T03:41:42.944Z,80.13
2022-12-20T03:44:15.473Z,80.08
2022-12-20T03:46:48.966Z,80.41
2022-12-20T03:49:19.893Z,80.09
2022-12-20T03:51:53.908Z,80.12
2022-12-20T03:54:24.645Z,80.04
2022-12-20T03:57:14.991Z,80.00
2022-12-20T03:59:46.262Z,80.39
2022-12-20T04:02:22.931Z,80.44
2022-12-20T04:04:53.766Z,80.39
2022-12-20T04:07:24.893Z,80.62
2022-12-20T04:09:55.488Z,80.68
2022-12-20T04:12:26.132Z,80.44
2022-12-20T04:14:56.732Z,80.63
2022-12-20T04:17:29.908Z,80.60
2022-12-20T04:20:18.992Z,80.23
2022-12-20T04:22:54.854Z,80.15
2022-12-20T04:25:25.399Z,80.07
2022-12-20T04:27:59.281Z,80.09
2022-12-20T04:30:30.023Z,80.03
2022-12-20T04:33:04.538Z,80.04
2022-12-20T04:35:35.420Z,80.07
2022-12-20T04:38:06.591Z,79.66
2022-12-20T04:40:37.258Z,79.84
2022-12-20T04:43:10.316Z,79.85
2022-12-20T04:45:40.819Z,79.58
2022-12-20T04:48:45.941Z,79.73
2022-12-20T04:51:04.688Z,79.60
2022-12-20T04:53:48.063Z,79.86
2022-12-20T04:56:31.476Z,79.64
2022-12-20T04:59:08.788Z,79.41
2022-12-20T05:01:39.982Z,79.32
2022-12-20T05:04:13.155Z,79.46
2022-12-20T05:06:43.653Z,79.37
2022-12-20T05:09:14.327Z,79.39
2022-12-20T05:11:44.929Z,79.46
2022-12-20T05:14:15.976Z,79.56
2022-12-20T05:16:46.519Z,79.59
2022-12-20T05:19:19.545Z,79.65
2022-12-20T05:22:02.365Z,79.88
2022-12-20T05:24:46.430Z,80.09
2022-12-20T05:27:25.532Z,80.21
2022-12-20T05:29:56.159Z,80.25
2022-12-20T05:32:27.308Z,80.17
2022-12-20T05:35:01.254Z,80.05
2022-12-20T05:37:32.803Z,80.27
2022-12-20T05:40:12.155Z,80.19
2022-12-20T05:42:44.785Z,80.24
2022-12-20T05:45:15.392Z,80.49
2022-12-20T05:47:57.021Z,80.48
2022-12-20T05:50:30.245Z,80.47
2022-12-20T05:53:29.835Z,80.48
2022-12-20T05:56:04.273Z,80.47
2022-12-20T05:58:38.803Z,80.47
2022-12-20T06:01:11.270Z,80.30
2022-12-20T06:03:43.353Z,80.23
2022-12-20T06:06:20.363Z,80.17
2022-12-20T06:08:51.840Z,80.32
2022-12-20T06:11:35.292Z,80.29
2022-12-20T06:14:12.288Z,80.17
2022-12-20T06:16:48.083Z,80.35
2022-12-20T06:19:21.811Z,80.29
2022-12-20T06:21:58.469Z,80.23
2022-12-20T06:24:36.417Z,80.33
2022-12-20T06:27:07.484Z,80.10
2022-12-20T06:29:38.053Z,80.27
2022-12-20T06:32:12.918Z,80.25
2022-12-20T06:34:43.904Z,80.22
2022-12-20T06:37:17.904Z,79.86
2022-12-20T06:39:48.658Z,79.98
2022-12-20T06:42:19.222Z,79.65
2022-12-20T06:44:50.880Z,79.89
2022-12-20T06:47:21.444Z,79.96
2022-12-20T06:49:52.003Z,79.75
2022-12-20T06:52:32.742Z,79.94
2022-12-20T06:55:03.276Z,79.71
2022-12-20T06:57:37.219Z,80.20
2022-12-20T07:00:10.639Z,79.71
2022-12-20T07:02:41.193Z,79.99
2022-12-20T07:05:12.253Z,79.79
2022-12-20T07:07:45.688Z,79.86
2022-12-20T07:10:16.485Z,79.88
2022-12-20T07:15:37.240Z,79.94
2022-12-20T07:18:08.133Z,79.85
2022-12-20T07:20:39.153Z,80.01
2022-12-20T07:23:12.195Z,80.20
2022-12-20T07:25:42.586Z,80.40
2022-12-20T07:28:13.982Z,80.50
2022-12-20T07:30:44.487Z,80.64
2022-12-20T07:33:14.868Z,80.66
2022-12-20T07:35:49.529Z,80.56
2022-12-20T07:38:27.479Z,80.43
2022-12-20T07:40:57.819Z,80.55
2022-12-20T07:43:28.221Z,80.50
2022-12-20T07:46:00.398Z,80.60
2022-12-20T07:48:30.922Z,80.81
2022-12-20T07:51:05.380Z,80.55
2022-12-20T07:53:42.906Z,80.72
2022-12-20T07:56:15.453Z,80.68
2022-12-20T07:58:46.923Z,80.29
2022-12-20T08:01:17.641Z,80.09
2022-12-20T08:03:52.438Z,80.30
2022-12-20T08:06:23.832Z,80.09
2022-12-20T08:09:01.225Z,80.19
2022-12-20T08:11:33.693Z,80.22
2022-12-20T08:14:04.833Z,80.31
2022-12-20T08:16:35.547Z,80.07
2022-12-20T08:19:06.273Z,79.87
2022-12-20T08:21:36.711Z,79.81
2022-12-20T08:24:10.340Z,79.79
2022-12-20T08:26:41.817Z,79.65
2022-12-20T08:29:12.414Z,79.78
2022-12-20T08:31:49.795Z,79.64
2022-12-20T08:34:21.051Z,79.72
2022-12-20T08:36:51.571Z,79.62
2022-12-20T08:39:24.628Z,79.74
2022-12-20T08:41:55.105Z,79.75
2022-12-20T08:44:25.755Z,79.96
2022-12-20T08:46:56.336Z,79.77
2022-12-20T08:49:26.763Z,79.83
2022-12-20T08:51:57.293Z,79.75
2022-12-20T08:54:30.471Z,79.56
2022-12-20T08:57:00.888Z,79.52
2022-12-20T08:59:31.459Z,79.29
2022-12-20T09:02:02.015Z,79.25
2022-12-20T09:04:32.694Z,79.15
2022-12-20T09:07:03.205Z,79.36
2022-12-20T09:09:36.470Z,79.35
2022-12-20T09:12:07.830Z,79.26
2022-12-20T09:14:38.283Z,79.32
2022-12-20T09:17:08.725Z,79.19
2022-12-20T09:19:39.245Z,79.22
2022-12-20T09:22:09.816Z,79.30
2022-12-20T09:24:43.284Z,79.28
2022-12-20T09:27:13.762Z,79.07
2022-12-20T09:29:44.273Z,79.20
2022-12-20T09:32:15.340Z,79.04
2022-12-20T09:34:45.704Z,79.02
2022-12-20T09:37:16.438Z,79.11
2022-12-20T09:39:52.863Z,79.04
2022-12-20T09:42:27.485Z,79.19
2022-12-20T09:45:06.130Z,79.52
2022-12-20T09:47:39.251Z,79.37
2022-12-20T09:50:10.858Z,79.14
2022-12-20T09:52:55.000Z,79.18
2022-12-20T09:55:37.304Z,79.18
2022-12-20T09:58:31.917Z,78.68
2022-12-20T10:01:14.628Z,78.85
2022-12-20T10:03:46.264Z,78.62
2022-12-20T10:06:29.344Z,78.72
2022-12-20T10:09:02.224Z,78.65
2022-12-20T10:12:00.917Z,78.39
2022-12-20T10:14:45.007Z,78.44
2022-12-20T10:17:20.070Z,78.74
2022-12-20T10:20:11.385Z,78.78
2022-12-20T10:22:49.197Z,79.03
2022-12-20T10:25:22.976Z,78.79
2022-12-20T10:27:59.996Z,78.62
2022-12-20T10:30:31.300Z,78.84
2022-12-20T10:33:02.853Z,78.47
2022-12-20T10:35:36.858Z,78.71
2022-12-20T10:38:12.488Z,78.60
2022-12-20T10:43:48.034Z,78.39
2022-12-20T10:46:19.510Z,78.46
2022-12-20T10:48:51.024Z,78.54
2022-12-20T10:51:22.893Z,78.37
2022-12-20T10:53:59.099Z,78.17
2022-12-20T10:56:31.857Z,78.43
2022-12-20T10:59:25.718Z,78.42
2022-12-20T11:01:56.287Z,78.32
2022-12-20T11:04:30.708Z,78.38
2022-12-20T11:07:03.467Z,78.25
2022-12-20T11:09:35.825Z,78.13
2022-12-20T11:12:09.590Z,77.98
2022-12-20T11:14:43.727Z,77.68
2022-12-20T11:17:27.768Z,77.62
2022-12-20T11:20:14.502Z,77.25
2022-12-20T11:22:53.920Z,77.32
2022-12-20T11:25:37.837Z,77.55
2022-12-20T11:28:23.655Z,77.43
2022-12-20T11:31:07.371Z,77.41
2022-12-20T11:33:53.020Z,77.65
2022-12-20T11:36:35.441Z,77.71
2022-12-20T11:39:15.774Z,77.78
2022-12-20T11:41:52.359Z,78.05
2022-12-20T11:44:32.256Z,77.99
2022-12-20T11:47:31.345Z,78.13
2022-12-20T11:50:17.035Z,78.31
2022-12-20T11:52:54.335Z,78.18
2022-12-20T11:55:29.952Z,78.15
2022-12-20T11:58:21.217Z,78.04
2022-12-20T12:00:58.336Z,77.95
2022-12-20T12:03:37.804Z,78.26
2022-12-20T12:06:13.276Z,78.35
2022-12-20T12:08:50.128Z,78.52
2022-12-20T12:12:04.712Z,78.38
2022-12-20T12:14:25.971Z,78.34
2022-12-20T12:17:01.770Z,78.28
2022-12-20T12:19:37.835Z,78.51
2022-12-20T12:22:16.054Z,78.30
2022-12-20T12:24:51.770Z,78.45
2022-12-20T12:27:26.316Z,78.09
2022-12-20T12:29:58.802Z,78.37
2022-12-20T12:32:35.378Z,78.20
2022-12-20T12:35:32.584Z,78.25
2022-12-20T12:38:18.942Z,78.25
2022-12-20T12:41:03.563Z,78.22
2022-12-20T12:43:51.558Z,77.78
2022-12-20T12:46:29.457Z,78.01
2022-12-20T12:49:03.858Z,77.65
2022-12-20T12:51:39.807Z,77.63
2022-12-20T12:54:22.292Z,77.71
2022-12-20T12:56:55.713Z,78.02
2022-12-20T12:59:46.235Z,77.78
2022-12-20T13:02:38.657Z,77.73
2022-12-20T13:05:34.882Z,77.58
2022-12-20T13:08:19.000Z,77.52
2022-12-20T13:11:04.725Z,77.67
2022-12-20T13:13:38.639Z,77.71
2022-12-20T13:16:15.767Z,77.49
2022-12-20T13:19:05.239Z,77.56
2022-12-20T13:21:40.918Z,77.43
2022-12-20T13:24:35.191Z,77.33
2022-12-20T13:27:20.991Z,77.65
2022-12-20T13:30:00.336Z,77.50
2022-12-20T13:33:15.647Z,77.40
2022-12-20T13:36:05.159Z,77.42
2022-12-20T13:38:42.176Z,77.37
2022-12-20T13:41:22.231Z,77.41
2022-12-20T13:43:58.975Z,77.25
2022-12-20T13:46:37.989Z,77.34
2022-12-20T13:49:13.351Z,77.41
2022-12-20T13:51:45.946Z,77.62
2022-12-20T13:54:26.856Z,77.64
2022-12-20T13:56:59.527Z,77.43
2022-12-20T13:59:35.460Z,77.51
2022-12-20T14:02:14.412Z,77.52
2022-12-20T14:04:47.291Z,77.61
2022-12-20T14:07:20.498Z,77.71
2022-12-20T14:09:59.487Z,77.81
2022-12-20T14:12:36.496Z,77.81
2022-12-20T14:15:25.033Z,77.75
2022-12-20T14:17:57.932Z,78.00
2022-12-20T14:20:34.125Z,78.08
2022-12-20T14:23:08.209Z,78.42
2022-12-20T14:25:43.577Z,78.55
2022-12-20T14:28:27.392Z,78.59
2022-12-20T14:31:03.435Z,78.62
2022-12-20T14:33:38.595Z,78.33
2022-12-20T14:36:20.586Z,78.29
2022-12-20T14:38:52.985Z,78.60
2022-12-20T14:41:36.103Z,78.42
2022-12-20T14:44:18.891Z,78.51
2022-12-20T14:46:57.054Z,78.23
2022-12-20T14:49:30.464Z,78.00
2022-12-20T14:52:18.577Z,77.82
2022-12-20T14:55:10.051Z,77.72
2022-12-20T14:57:48.740Z,77.71
2022-12-20T15:00:25.389Z,77.82
2022-12-20T15:03:05.149Z,77.80
2022-12-20T15:05:53.478Z,77.82
2022-12-20T15:08:27.617Z,78.06
2022-12-20T15:11:04.057Z,78.01
2022-12-20T15:13:36.005Z,78.13
2022-12-20T15:16:08.756Z,78.19
2022-12-20T15:18:42.137Z,78.18
2022-12-20T15:21:19.905Z,78.15
2022-12-20T15:23:52.564Z,78.13
2022-12-20T15:26:26.869Z,78.06
2022-12-20T15:28:58.415Z,77.70
2022-12-20T15:31:34.079Z,77.94
2022-12-20T15:34:13.974Z,78.11
2022-12-20T15:36:44.653Z,77.74
2022-12-20T15:39:15.940Z,77.51
2022-12-20T15:41:48.954Z,77.62
2022-12-20T15:44:22.848Z,77.69
2022-12-20T15:46:54.162Z,77.47
2022-12-20T15:49:30.451Z,77.46
2022-12-20T15:52:01.619Z,77.42
2022-12-20T15:54:33.925Z,77.51
2022-12-20T15:57:07.608Z,77.30
2022-12-20T16:02:32.741Z,77.57
2022-12-20T16:05:06.498Z,77.55
2022-12-20T16:07:37.799Z,77.81
2022-12-20T16:10:10.144Z,77.51
2022-12-20T16:12:41.581Z,77.53
2022-12-20T16:15:22.666Z,77.69
2022-12-20T16:17:53.171Z,77.17
2022-12-20T16:20:27.677Z,77.24
2022-12-20T16:22:58.439Z,77.20
2022-12-20T16:25:31.927Z,77.17
2022-12-20T16:28:02.489Z,77.11
2022-12-20T16:30:33.181Z,77.34
2022-12-20T16:33:03.837Z,77.43
2022-12-20T16:35:39.292Z,77.44
2022-12-20T16:38:09.890Z,77.73
2022-12-20T16:40:40.961Z,77.79
2022-12-20T16:43:17.782Z,77.92
2022-12-20T16:45:48.342Z,77.73
2022-12-20T16:48:18.989Z,77.90
2022-12-20T16:50:52.388Z,77.99
2022-12-20T16:53:22.879Z,78.31
2022-12-20T16:55:53.483Z,78.42
2022-12-20T16:58:44.889Z,78.45
2022-12-20T17:01:18.009Z,78.69
2022-12-20T17:03:49.116Z,78.93
2022-12-20T17:06:22.444Z,79.16
2022-12-20T17:11:37.603Z,79.49
2022-12-20T17:14:12.550Z,79.76
2022-12-20T17:16:43.810Z,79.62
2022-12-20T17:19:14.234Z,80.03
2022-12-20T17:24:34.725Z,79.72
2022-12-20T17:27:05.733Z,79.76
2022-12-20T17:29:36.282Z,80.01
2022-12-20T17:32:21.315Z,80.03
2022-12-20T17:34:52.596Z,80.29
2022-12-20T17:37:25.668Z,80.15
2022-12-20T17:39:55.974Z,80.23
2022-12-20T17:42:31.224Z,80.05
2022-12-20T17:45:02.284Z,80.16
2022-12-20T17:47:33.762Z,80.14
2022-12-20T17:50:04.236Z,80.38
2022-12-20T17:52:37.444Z,80.11
2022-12-20T17:55:09.448Z,80.34
2022-12-20T17:57:40.013Z,80.09
2022-12-20T18:00:18.213Z,80.21
2022-12-20T18:02:48.768Z,80.56
2022-12-20T18:05:19.518Z,80.63
2022-12-20T18:07:56.927Z,80.72
2022-12-20T18:10:27.554Z,80.96
2022-12-20T18:12:58.467Z,80.88
2022-12-20T18:15:29.321Z,80.91
2022-12-20T18:17:59.789Z,81.23
2022-12-20T18:20:30.415Z,81.38
2022-12-20T18:23:03.503Z,81.64
2022-12-20T18:25:34.018Z,81.71
2022-12-20T18:28:06.442Z,81.68
2022-12-20T18:30:36.894Z,81.79
2022-12-20T18:33:07.371Z,81.89
2022-12-20T18:35:38.056Z,81.98
2022-12-20T18:38:11.161Z,82.23
2022-12-20T18:40:46.989Z,82.47
2022-12-20T18:43:17.543Z,82.49
2022-12-20T18:45:48.034Z,82.77
2022-12-20T18:48:19.938Z,82.75
2022-12-20T18:50:50.325Z,82.71
2022-12-20T18:53:24.491Z,82.45
2022-12-20T18:55:54.897Z,82.49
2022-12-20T18:58:25.335Z,82.59
2022-12-20T19:00:59.212Z,82.55
2022-12-20T19:03:30.321Z,82.53
2022-12-20T19:06:01.516Z,82.46
2022-12-20T19:08:34.793Z,82.67
2022-12-20T19:11:10.083Z,82.84
2022-12-20T19:13:41.739Z,83.01
2022-12-20T19:16:15.806Z,83.13
2022-12-20T19:18:47.305Z,83.17
2022-12-20T19:21:20.542Z,83.12
2022-12-20T19:23:55.736Z,82.76
2022-12-20T19:26:28.731Z,82.91
2022-12-20T19:29:00.214Z,82.74
2022-12-20T19:31:32.446Z,82.22
2022-12-20T19:34:05.639Z,82.22
2022-12-20T19:36:40.273Z,82.03
2022-12-20T19:39:17.466Z,81.73
2022-12-20T19:42:21.492Z,81.79
2022-12-20T19:44:43.932Z,81.75
2022-12-20T19:47:14.486Z,81.62
2022-12-20T19:49:45.417Z,81.62
2022-12-20T19:52:29.987Z,81.65
2022-12-20T19:55:03.062Z,81.74
2022-12-20T19:57:33.520Z,81.49
2022-12-20T20:00:08.609Z,81.63
2022-12-20T20:02:42.521Z,81.70
2022-12-20T20:05:15.425Z,81.79
2022-12-20T20:07:46.285Z,81.71
2022-12-20T20:10:19.454Z,81.50
2022-12-20T20:12:50.014Z,81.42
2022-12-20T20:15:20.720Z,81.57
2022-12-20T20:17:51.332Z,81.55
2022-12-20T20:20:22.443Z,81.62
2022-12-20T20:22:53.049Z,81.64
2022-12-20T20:25:26.434Z,81.75
2022-12-20T20:27:56.849Z,81.92
2022-12-20T20:30:27.231Z,81.93
2022-12-20T20:32:57.708Z,81.65
2022-12-20T20:35:28.076Z,81.79
2022-12-20T20:37:58.633Z,81.49
2022-12-20T20:40:32.487Z,81.45
2022-12-20T20:43:03.424Z,81.46
2022-12-20T20:45:33.865Z,81.20
2022-12-20T20:48:06.831Z,81.16
2022-12-20T20:50:37.195Z,81.28
2022-12-20T20:53:07.773Z,81.18
2022-12-20T20:55:43.719Z,81.25
2022-12-20T20:58:14.224Z,81.00
2022-12-20T21:00:44.555Z,81.17
2022-12-20T21:03:15.076Z,81.06
2022-12-20T21:06:29.920Z,81.12
2022-12-20T21:08:37.170Z,81.22
2022-12-20T21:11:12.157Z,81.70
2022-12-20T21:13:42.624Z,81.77
2022-12-20T21:16:16.229Z,81.75
2022-12-20T21:18:46.891Z,82.02
2022-12-20T21:21:17.232Z,82.17
2022-12-20T21:23:49.023Z,82.03
2022-12-20T21:26:23.191Z,82.10
2022-12-20T21:28:53.478Z,82.01
2022-12-20T21:31:23.756Z,82.02
2022-12-20T21:33:54.372Z,82.36
2022-12-20T21:36:25.341Z,82.38
2022-12-20T21:38:58.086Z,82.45
2022-12-20T21:41:32.057Z,82.29
2022-12-20T21:44:03.794Z,82.13
2022-12-20T21:46:34.935Z,82.26
2022-12-20T21:49:05.487Z,81.78
2022-12-20T21:51:35.936Z,81.73
2022-12-20T21:54:07.605Z,81.53
2022-12-20T21:56:40.635Z,81.45
2022-12-20T21:59:13.184Z,81.46
2022-12-20T22:01:45.833Z,81.26
2022-12-20T22:04:16.746Z,81.23
2022-12-20T22:06:47.928Z,81.29
2022-12-20T22:09:19.281Z,81.08
2022-12-20T22:11:52.272Z,80.98
2022-12-20T22:14:22.605Z,81.14
2022-12-20T22:16:54.693Z,81.23
2022-12-20T22:19:26.436Z,81.28
2022-12-20T22:21:58.476Z,81.16
2022-12-20T22:24:29.392Z,81.12
2022-12-20T22:27:06.275Z,81.37
2022-12-20T22:29:41.364Z,81.05
2022-12-20T22:32:11.758Z,81.15
2022-12-20T22:34:42.276Z,81.14
2022-12-20T22:37:12.573Z,80.96
2022-12-20T22:39:43.059Z,81.17
2022-12-20T22:42:15.962Z,81.03
2022-12-20T22:44:46.322Z,81.02
2022-12-20T22:47:16.751Z,81.01
2022-12-20T22:49:47.160Z,80.92
2022-12-20T22:52:17.573Z,81.13
2022-12-20T22:54:47.943Z,81.13
2022-12-20T22:57:21.076Z,80.93
2022-12-20T22:59:51.484Z,81.21
2022-12-20T23:02:23.361Z,81.09
2022-12-20T23:04:54.316Z,81.25
2022-12-20T23:07:25.492Z,81.11
2022-12-20T23:09:55.839Z,81.30
2022-12-20T23:12:41.318Z,81.44
2022-12-20T23:15:26.569Z,81.54
2022-12-20T23:17:56.921Z,81.75
2022-12-20T23:20:40.002Z,81.68
2022-12-20T23:23:10.887Z,81.56
2022-12-20T23:25:42.025Z,81.45
2022-12-20T23:28:14.966Z,81.59
2022-12-20T23:30:45.393Z,81.53
2022-12-20T23:33:15.742Z,82.00
2022-12-20T23:35:46.350Z,82.05
2022-12-20T23:38:16.713Z,82.13
2022-12-20T23:40:47.105Z,82.27
2022-12-20T23:43:20.222Z,82.54
2022-12-20T23:45:50.705Z,82.55
2022-12-20T23:48:21.145Z,82.63
2022-12-20T23:50:58.362Z,82.69
2022-12-20T23:53:29.088Z,82.88
2022-12-20T23:56:01.490Z,82.78
2022-12-20T23:58:35.198Z,82.94
